Rejestracja

Wszystkie dane podawane są w czasie UTC za wyjątkiem miejsc gdzie jest jednoznacznie podane, że jest inaczej. Dane podawane w serwisie mają charakter informacyjny!!!
Informacje w sprawie dostępu do serwisu pod numerem tel. +48 261-828-138

Aktualna Pogoda
 
Pogoda w Polsce
8°C Szczecin 13°C Suwałki 8°C Warszawa 12°C Poznan
6°C Opole 6°C Kraków 8°C Rzeszów
Więcej miast w Polsce

Pogoda w Europie
9°C Berlin 15°C Paryz 14°C Bruksela 14°C Oslo
6°C Praga 10°C Zagrzeb
Więcej miast w Europie

Metary wojskowe test
METAR EPBC 250700Z 06004KT CAVOK 12/08 Q1026=
METAR EPCE 250700Z 00000KT CAVOK 12/10 Q1025 RMK 118 089 0/0=
METAR EPDA 250700Z 15002KT 9999 BKN227 13/10 Q1025 RMK 128 085 7/7=
METAR EPDE 250700Z VRB02KT 2200 BR SCT004 SCT200 08/07 Q1025 RMK 075 099 4/3=
METAR EPIR 250630Z VRB02KT CAVOK 08/07 Q1025 RMK 081 092 4/4=
METAR EPKS 250700Z 10004KT CAVOK 10/08 Q1025 RMK 103 085 4/4=
METAR EPLK 250630Z VRB02KT CAVOK 10/08 Q1025 RMK 098 088 5/5=
METAR EPLY 250700Z VRB02KT 8000 NSC 11/07 Q1026 RMK 107 080 5/5=
METAR EPMB 250630Z 20002KT CAVOK 10/09 Q1026 RMK 101 092 4/4=
METAR EPMI 250700Z VRB02KT CAVOK 12/09 Q1025 RMK 120 081 3/3=
METAR EPMM 250630Z VRB02KT 9999 FEW030 BKN200 11/10 Q1025 RMK 106 093 5/1=
METAR EPOK 250700Z 26005KT CAVOK 14/12 Q1025 RMK 141 088 3/3=
METAR EPPR 250700Z VRB02KT CAVOK 11/10 Q1026 RMK 105 095 2/2=
METAR EPPW 250700Z 11002KT CAVOK 12/08 Q1025 RMK 116 076 3/3=
METAR EPSN 250700Z 14002KT CAVOK 12/09 Q1025 RMK 123 081 3/3=
METAR EPTM 250700Z 00000KT CAVOK 09/08 Q1025 RMK 093 093 3/3=


 
Informacje ogólne
Pogoda
Warszawa
Temperatura: 7.7°C
Wiatr: 1.0 m/s
Ciśnienie: 1026.4 hPa
Zjawiska: Brak
Temp. max: 8.1 °C
Temp. min: 6.0 °C


Dane astronomiczne
Warszawa:
Dzien: 11:59 h
Noc: 12:01 h


Using HW VSP powered by HW group.

Prawa autorskie©2007 SSH SZ RP. Wszelkie prawa zastrzeżone.